createdAt,value
2019-05-14T00:02:14.613Z,1.67
2019-05-14T00:05:01.716Z,1.30
2019-05-14T00:07:47.828Z,1.37
2019-05-14T00:10:33.583Z,1.37
2019-05-14T00:13:21.461Z,1.10
2019-05-14T00:16:07.687Z,1.20
2019-05-14T00:18:53.930Z,1.27
2019-05-14T00:21:42.249Z,1.30
2019-05-14T00:24:28.019Z,1.67
2019-05-14T00:27:13.695Z,1.50
2019-05-14T00:30:02.255Z,1.37
2019-05-14T00:32:48.060Z,1.23
2019-05-14T00:35:35.761Z,1.33
2019-05-14T00:38:22.559Z,1.13
2019-05-14T00:41:11.001Z,1.10
2019-05-14T00:43:56.876Z,1.92
2019-05-14T00:46:42.675Z,1.63
2019-05-14T00:49:29.043Z,1.40
2019-05-14T00:52:14.795Z,1.60
2019-05-14T00:55:01.163Z,1.40
2019-05-14T00:57:47.358Z,1.70
2019-05-14T01:00:34.885Z,1.57
2019-05-14T01:03:21.718Z,1.47
2019-05-14T01:06:08.051Z,1.30
2019-05-14T01:08:54.400Z,1.70
2019-05-14T01:11:41.983Z,1.77
2019-05-14T01:14:28.132Z,1.67
2019-05-14T01:17:14.035Z,1.37
2019-05-14T01:19:59.996Z,1.70
2019-05-14T01:22:45.719Z,1.70
2019-05-14T01:25:31.913Z,1.83
2019-05-14T01:28:18.188Z,1.80
2019-05-14T01:31:04.463Z,1.20
2019-05-14T01:33:51.577Z,1.40
2019-05-14T01:36:38.141Z,1.33
2019-05-14T01:39:23.900Z,1.50
2019-05-14T01:42:12.184Z,1.70
2019-05-14T01:44:57.706Z,1.57
2019-05-14T01:47:43.948Z,1.40
2019-05-14T01:50:32.035Z,1.60
2019-05-14T01:53:17.839Z,1.50
2019-05-14T01:56:04.032Z,1.87
2019-05-14T01:58:52.274Z,1.80
2019-05-14T02:01:38.232Z,1.70
2019-05-14T02:04:24.464Z,1.73
2019-05-14T02:07:11.523Z,2.00
2019-05-14T02:09:57.713Z,1.37
2019-05-14T02:12:43.436Z,1.93
2019-05-14T02:15:37.123Z,1.77
2019-05-14T02:18:17.268Z,1.80
2019-05-14T02:21:03.635Z,1.50
2019-05-14T02:23:51.368Z,1.40
2019-05-14T02:26:37.966Z,1.90
2019-05-14T02:29:24.268Z,1.53
2019-05-14T02:32:10.930Z,1.80
2019-05-14T02:34:58.924Z,1.50
2019-05-14T02:37:45.614Z,1.83
2019-05-14T02:40:31.816Z,1.80
2019-05-14T02:43:20.024Z,1.47
2019-05-14T02:46:13.055Z,1.53
2019-05-14T02:48:59.267Z,1.93
2019-05-14T02:51:43.949Z,1.93
2019-05-14T02:54:30.368Z,1.50
2019-05-14T02:57:19.712Z,1.80
2019-05-14T03:00:04.846Z,1.30
2019-05-14T03:02:50.920Z,1.93
2019-05-14T03:05:39.923Z,1.70
2019-05-14T03:08:24.787Z,1.43
2019-05-14T03:11:10.802Z,1.30
2019-05-14T03:13:59.954Z,1.73
2019-05-14T03:16:44.890Z,1.67
2019-05-14T03:19:31.248Z,1.53
2019-05-14T03:22:26.455Z,1.60
2019-05-14T03:25:10.086Z,1.70
2019-05-14T03:27:59.607Z,1.50
2019-05-14T03:30:44.164Z,1.77
2019-05-14T03:33:33.283Z,1.50
2019-05-14T03:36:25.200Z,1.70
2019-05-14T03:39:06.311Z,1.50
2019-05-14T03:41:52.635Z,1.60
2019-05-14T03:44:39.886Z,1.70
2019-05-14T03:47:26.156Z,1.57
2019-05-14T03:50:12.592Z,1.50
2019-05-14T03:52:59.705Z,1.33
2019-05-14T03:55:46.137Z,1.30
2019-05-14T03:58:32.523Z,1.80
2019-05-14T04:01:20.223Z,1.43
2019-05-14T04:04:09.963Z,1.50
2019-05-14T04:06:55.160Z,1.70
2019-05-14T04:09:42.220Z,1.57
2019-05-14T04:12:30.156Z,1.23
2019-05-14T04:15:19.243Z,1.53
2019-05-14T04:18:04.524Z,1.37
2019-05-14T04:20:52.403Z,1.50
2019-05-14T04:23:40.261Z,1.50
2019-05-14T04:26:30.289Z,1.47
2019-05-14T04:29:19.704Z,1.67
2019-05-14T04:32:09.511Z,1.57
2019-05-14T04:34:54.940Z,1.30
2019-05-14T04:37:41.329Z,1.30
2019-05-14T04:40:29.709Z,1.40
2019-05-14T04:43:14.912Z,1.30
2019-05-14T04:46:01.429Z,1.27
2019-05-14T04:48:50.622Z,1.30
2019-05-14T04:51:35.402Z,1.40
2019-05-14T04:54:21.602Z,1.37
2019-05-14T04:57:10.178Z,1.60
2019-05-14T04:59:55.941Z,1.33
2019-05-14T05:02:42.092Z,1.40
2019-05-14T05:05:29.929Z,1.40
2019-05-14T05:08:19.673Z,1.33
2019-05-14T05:11:03.793Z,1.00
2019-05-14T05:14:00.471Z,1.20
2019-05-14T05:16:49.020Z,1.20
2019-05-14T05:19:34.757Z,0.97
2019-05-14T05:22:20.965Z,1.07
2019-05-14T05:25:08.369Z,0.90
2019-05-14T05:27:56.536Z,0.90
2019-05-14T05:30:42.671Z,0.90
2019-05-14T05:33:29.482Z,0.87
2019-05-14T05:36:18.312Z,0.90
2019-05-14T05:39:05.307Z,0.90
2019-05-14T05:41:51.331Z,0.77
2019-05-14T05:44:39.333Z,0.80
2019-05-14T05:47:25.691Z,1.00
2019-05-14T05:50:12.018Z,0.60
2019-05-14T05:52:58.527Z,0.90
2019-05-14T05:55:44.980Z,0.80
2019-05-14T05:58:31.404Z,1.00
2019-05-14T06:01:19.588Z,0.77
2019-05-14T06:04:05.548Z,0.70
2019-05-14T06:06:51.291Z,0.80
2019-05-14T06:09:38.115Z,0.80
2019-05-14T06:12:24.679Z,0.80
2019-05-14T06:15:10.568Z,0.90
2019-05-14T06:18:13.371Z,0.70
2019-05-14T06:20:44.807Z,0.77
2019-05-14T06:23:30.935Z,0.80
2019-05-14T06:26:19.228Z,0.80
2019-05-14T06:29:04.970Z,0.83
2019-05-14T06:31:51.129Z,0.90
2019-05-14T06:34:38.271Z,0.90
2019-05-14T06:37:24.428Z,0.93
2019-05-14T06:40:10.683Z,0.90
2019-05-14T06:42:59.151Z,0.80
2019-05-14T06:45:49.534Z,0.93
2019-05-14T06:48:35.740Z,0.70
2019-05-14T06:51:21.960Z,0.90
2019-05-14T06:54:09.231Z,0.90
2019-05-14T06:56:58.099Z,0.50
2019-05-14T06:59:43.885Z,0.70
2019-05-14T07:02:30.255Z,0.80
2019-05-14T07:05:18.682Z,0.70
2019-05-14T07:08:03.972Z,0.70
2019-05-14T07:10:49.764Z,0.77
2019-05-14T07:13:38.482Z,0.70
2019-05-14T07:16:24.176Z,0.70
2019-05-14T07:19:10.450Z,0.60
2019-05-14T07:21:58.319Z,0.73
2019-05-14T07:24:44.187Z,0.70
2019-05-14T07:27:30.515Z,0.80
2019-05-14T07:30:19.170Z,0.60
2019-05-14T07:33:04.296Z,0.80
2019-05-14T07:35:49.974Z,0.50
2019-05-14T07:38:38.885Z,0.50
2019-05-14T07:41:24.188Z,0.70
2019-05-14T07:44:10.548Z,0.80
2019-05-14T07:46:58.840Z,0.70
2019-05-14T07:49:44.546Z,0.70
2019-05-14T07:52:30.238Z,0.80
2019-05-14T07:55:33.551Z,0.60
2019-05-14T07:58:19.808Z,0.60
2019-05-14T08:01:06.241Z,0.67
2019-05-14T08:03:52.666Z,0.70
2019-05-14T08:06:39.379Z,0.50
2019-05-14T08:09:28.033Z,0.60
2019-05-14T08:12:16.373Z,0.70
2019-05-14T08:15:15.425Z,0.43
2019-05-14T08:17:49.801Z,0.57
2019-05-14T08:20:37.823Z,0.60
2019-05-14T08:23:23.676Z,0.70
2019-05-14T08:26:09.431Z,0.60
2019-05-14T08:28:57.991Z,0.57
2019-05-14T08:31:43.999Z,0.50
2019-05-14T08:34:32.310Z,0.53
2019-05-14T08:37:19.095Z,0.70
2019-05-14T08:40:05.510Z,0.60
2019-05-14T08:42:51.708Z,0.40
2019-05-14T08:45:38.897Z,0.50
2019-05-14T08:48:25.254Z,0.50
2019-05-14T08:51:11.479Z,0.50
2019-05-14T08:53:59.221Z,0.50
2019-05-14T08:56:45.301Z,0.60
2019-05-14T08:59:31.396Z,0.40
2019-05-14T09:02:19.406Z,0.50
2019-05-14T09:05:09.876Z,0.50
2019-05-14T09:07:53.672Z,0.50
2019-05-14T09:10:40.421Z,0.60
2019-05-14T09:13:29.002Z,0.40
2019-05-14T09:16:14.760Z,0.50
2019-05-14T09:19:00.578Z,0.50
2019-05-14T09:21:49.388Z,0.40
2019-05-14T09:24:34.484Z,0.60
2019-05-14T09:27:20.768Z,0.40
2019-05-14T09:30:09.733Z,0.43
2019-05-14T09:32:55.536Z,0.40
2019-05-14T09:35:43.042Z,0.40
2019-05-14T09:38:29.487Z,0.50
2019-05-14T09:41:18.397Z,0.43
2019-05-14T09:44:03.995Z,0.30
2019-05-14T09:46:50.427Z,0.40
2019-05-14T09:49:38.618Z,0.40
2019-05-14T09:52:24.027Z,0.50
2019-05-14T09:55:10.792Z,0.40
2019-05-14T09:57:58.676Z,0.50
2019-05-14T10:00:44.448Z,0.50
2019-05-14T10:03:30.215Z,0.30
2019-05-14T10:06:16.589Z,0.73
2019-05-14T10:09:04.840Z,0.60
2019-05-14T10:11:50.604Z,0.60
2019-05-14T10:14:39.211Z,0.40
2019-05-14T10:17:24.979Z,0.60
2019-05-14T10:20:11.686Z,0.60
2019-05-14T10:22:58.575Z,0.80
2019-05-14T10:25:44.931Z,0.90
2019-05-14T10:28:31.222Z,0.90
2019-05-14T10:31:18.275Z,0.80
2019-05-14T10:34:04.419Z,0.90
2019-05-14T10:36:50.715Z,1.07
2019-05-14T10:39:39.128Z,1.00
2019-05-14T10:42:24.455Z,0.97
2019-05-14T10:45:12.943Z,1.00
2019-05-14T10:47:59.060Z,1.00
2019-05-14T10:50:56.255Z,1.10
2019-05-14T10:53:33.131Z,0.90
2019-05-14T10:56:19.784Z,0.87
2019-05-14T10:59:09.258Z,0.90
2019-05-14T11:01:54.228Z,0.90
2019-05-14T11:04:40.070Z,0.97
2019-05-14T11:07:29.077Z,0.90
2019-05-14T11:10:14.306Z,1.03
2019-05-14T11:13:00.709Z,1.07
2019-05-14T11:15:48.695Z,1.00
2019-05-14T11:18:34.785Z,1.00
2019-05-14T11:21:26.508Z,1.00
2019-05-14T11:24:09.626Z,1.00
2019-05-14T11:26:55.836Z,1.10
2019-05-14T11:29:42.038Z,1.00
2019-05-14T11:32:29.126Z,1.00
2019-05-14T11:35:15.559Z,1.00
2019-05-14T11:38:01.357Z,1.10
2019-05-14T11:40:49.591Z,1.10
2019-05-14T11:43:35.487Z,1.00
2019-05-14T11:46:33.710Z,1.00
2019-05-14T11:49:09.184Z,1.10
2019-05-14T11:52:06.162Z,1.10
2019-05-14T11:54:43.060Z,1.10
2019-05-14T11:57:28.980Z,1.03
2019-05-14T12:00:15.330Z,1.00
2019-05-14T12:03:01.448Z,1.30
2019-05-14T12:05:49.415Z,1.10
2019-05-14T12:08:35.605Z,1.20
2019-05-14T12:11:21.892Z,1.40
2019-05-14T12:14:09.035Z,1.00
2019-05-14T12:16:55.527Z,1.03
2019-05-14T12:19:43.759Z,1.10
2019-05-14T12:22:29.875Z,1.00
2019-05-14T12:25:18.618Z,1.10
2019-05-14T12:28:04.354Z,1.10
2019-05-14T12:30:50.716Z,0.90
2019-05-14T12:33:39.477Z,1.10
2019-05-14T12:36:24.903Z,1.10
2019-05-14T12:39:11.144Z,1.20
2019-05-14T12:41:58.143Z,1.00
2019-05-14T12:44:44.399Z,0.87
2019-05-14T12:47:30.700Z,1.20
2019-05-14T12:50:18.432Z,0.90
2019-05-14T12:53:04.428Z,0.97
2019-05-14T12:55:50.879Z,0.87
2019-05-14T12:58:44.599Z,1.00
2019-05-14T13:01:24.943Z,1.00
2019-05-14T13:04:11.276Z,1.00
2019-05-14T13:06:59.806Z,0.80
2019-05-14T13:09:45.485Z,1.00
2019-05-14T13:12:31.831Z,1.00
2019-05-14T13:15:20.192Z,0.80
2019-05-14T13:18:05.568Z,0.90
2019-05-14T13:20:51.448Z,0.87
2019-05-14T13:23:38.515Z,0.90
2019-05-14T13:26:24.683Z,0.90
2019-05-14T13:29:11.068Z,0.70
2019-05-14T13:31:59.236Z,0.93
2019-05-14T13:34:45.092Z,0.80
2019-05-14T13:37:30.823Z,0.70
2019-05-14T13:40:20.859Z,1.00
2019-05-14T13:43:04.937Z,1.10
2019-05-14T13:45:51.258Z,0.70
2019-05-14T13:48:42.684Z,1.00
2019-05-14T13:51:29.406Z,0.80
2019-05-14T13:54:13.396Z,0.80
2019-05-14T13:56:59.776Z,0.90
2019-05-14T13:59:45.524Z,0.80
2019-05-14T14:02:31.959Z,1.00
2019-05-14T14:05:20.163Z,0.80
2019-05-14T14:08:08.604Z,0.87
2019-05-14T14:10:54.489Z,0.90
2019-05-14T14:13:41.244Z,1.00
2019-05-14T14:16:28.617Z,0.90
2019-05-14T14:19:14.811Z,0.80
2019-05-14T14:22:01.214Z,0.90
2019-05-14T14:24:48.748Z,0.80
2019-05-14T14:27:35.280Z,0.77
2019-05-14T14:30:21.624Z,0.80
2019-05-14T14:33:07.994Z,0.80
2019-05-14T14:35:58.541Z,0.90
2019-05-14T14:38:44.843Z,0.70
2019-05-14T14:41:30.860Z,1.00
2019-05-14T14:44:19.199Z,0.70
2019-05-14T14:47:04.863Z,0.80
2019-05-14T14:49:52.158Z,0.70
2019-05-14T14:52:38.484Z,0.80
2019-05-14T14:55:24.748Z,0.80
2019-05-14T14:58:11.853Z,1.10
2019-05-14T15:00:59.439Z,0.77
2019-05-14T15:03:49.340Z,0.70
2019-05-14T15:06:33.986Z,0.90
2019-05-14T15:09:20.409Z,0.77
2019-05-14T15:12:09.109Z,0.90
2019-05-14T15:14:54.588Z,0.70
2019-05-14T15:17:41.002Z,0.80
2019-05-14T15:20:29.008Z,0.93
2019-05-14T15:23:14.667Z,0.90
2019-05-14T15:26:01.072Z,0.70
2019-05-14T15:28:49.487Z,0.70
2019-05-14T15:31:35.296Z,0.90
2019-05-14T15:34:21.656Z,0.80
2019-05-14T15:37:08.976Z,1.00
2019-05-14T15:39:55.187Z,1.13
2019-05-14T15:42:41.463Z,0.80
2019-05-14T15:45:28.767Z,0.80
2019-05-14T15:48:15.152Z,0.80
2019-05-14T15:51:01.757Z,0.90
2019-05-14T15:54:06.293Z,0.80
2019-05-14T15:56:35.895Z,0.80
2019-05-14T15:59:21.809Z,0.80
2019-05-14T16:02:09.431Z,0.80
2019-05-14T16:04:58.908Z,0.80
2019-05-14T16:07:43.836Z,1.00
2019-05-14T16:10:31.348Z,0.67
2019-05-14T16:13:20.873Z,0.97
2019-05-14T16:16:05.434Z,0.83
2019-05-14T16:18:51.852Z,0.77
2019-05-14T16:21:38.735Z,0.80
2019-05-14T16:24:24.949Z,0.80
2019-05-14T16:27:11.328Z,0.87
2019-05-14T16:29:58.582Z,0.70
2019-05-14T16:32:44.547Z,0.80
2019-05-14T16:35:30.248Z,0.90
2019-05-14T16:38:16.532Z,0.70
2019-05-14T16:41:03.126Z,0.90
2019-05-14T16:43:49.597Z,0.60
2019-05-14T16:46:38.261Z,0.83
2019-05-14T16:49:23.977Z,0.70
2019-05-14T16:52:10.888Z,0.60
2019-05-14T16:55:17.283Z,0.73
2019-05-14T16:57:44.948Z,0.70
2019-05-14T17:00:34.587Z,0.80
2019-05-14T17:03:19.356Z,0.60
2019-05-14T17:06:05.499Z,0.80
2019-05-14T17:08:51.881Z,0.60
2019-05-14T17:11:39.053Z,0.60
2019-05-14T17:14:25.100Z,0.90
2019-05-14T17:17:11.076Z,0.70
2019-05-14T17:19:58.768Z,0.90
2019-05-14T17:22:44.895Z,0.60
2019-05-14T17:25:31.214Z,0.70
2019-05-14T17:28:17.566Z,1.00
2019-05-14T17:31:03.595Z,0.87
2019-05-14T17:33:49.917Z,1.20
2019-05-14T17:36:38.803Z,0.80
2019-05-14T17:39:24.062Z,0.87
2019-05-14T17:42:11.686Z,0.83
2019-05-14T17:44:58.937Z,0.70
2019-05-14T17:47:45.091Z,0.70
2019-05-14T17:50:31.043Z,0.70
2019-05-14T17:53:18.296Z,0.70
2019-05-14T17:56:04.832Z,0.70
2019-05-14T17:58:50.820Z,0.80
2019-05-14T18:01:39.266Z,0.67
2019-05-14T18:04:25.077Z,0.70
2019-05-14T18:07:10.883Z,0.70
2019-05-14T18:09:58.722Z,0.67
2019-05-14T18:12:44.542Z,0.60
2019-05-14T18:15:30.749Z,0.53
2019-05-14T18:18:18.495Z,0.53
2019-05-14T18:21:04.843Z,0.63
2019-05-14T18:23:51.237Z,0.70
2019-05-14T18:26:38.563Z,0.57
2019-05-14T18:29:25.115Z,0.50
2019-05-14T18:32:11.728Z,0.70
2019-05-14T18:34:58.241Z,0.50
2019-05-14T18:37:44.420Z,0.70
2019-05-14T18:40:30.661Z,0.70
2019-05-14T18:43:18.801Z,0.60
2019-05-14T18:46:04.784Z,0.70
2019-05-14T18:48:51.147Z,0.50
2019-05-14T18:51:37.404Z,0.70
2019-05-14T18:54:23.312Z,0.60
2019-05-14T18:57:11.902Z,0.60
2019-05-14T18:59:57.383Z,0.50
2019-05-14T19:02:43.225Z,0.87
2019-05-14T19:05:29.652Z,0.50
2019-05-14T19:08:17.820Z,0.60
2019-05-14T19:11:03.560Z,0.60
2019-05-14T19:13:49.259Z,0.70
2019-05-14T19:16:38.114Z,0.60
2019-05-14T19:19:23.530Z,0.63
2019-05-14T19:22:09.700Z,0.53
2019-05-14T19:24:55.896Z,0.60
2019-05-14T19:27:41.828Z,0.50
2019-05-14T19:30:28.641Z,0.60
2019-05-14T19:33:15.090Z,0.63
2019-05-14T19:36:01.513Z,0.70
2019-05-14T19:38:48.140Z,0.63
2019-05-14T19:41:34.507Z,0.70
2019-05-14T19:44:20.424Z,0.67
2019-05-14T19:47:06.725Z,0.70
2019-05-14T19:49:53.065Z,0.60
2019-05-14T19:52:39.391Z,0.53
2019-05-14T19:55:28.580Z,0.80
2019-05-14T19:58:13.615Z,0.80
2019-05-14T20:00:59.826Z,1.00
2019-05-14T20:03:45.969Z,0.53
2019-05-14T20:06:31.908Z,0.80
2019-05-14T20:09:18.087Z,0.70
2019-05-14T20:12:03.869Z,0.60
2019-05-14T20:14:50.476Z,0.80
2019-05-14T20:17:38.223Z,0.70
2019-05-14T20:20:24.114Z,0.60
2019-05-14T20:23:10.381Z,0.80
2019-05-14T20:25:58.575Z,0.67
2019-05-14T20:28:44.404Z,0.90
2019-05-14T20:31:30.428Z,0.60
2019-05-14T20:34:18.988Z,0.90
2019-05-14T20:37:04.879Z,0.80
2019-05-14T20:39:51.216Z,0.80
2019-05-14T20:42:39.305Z,0.80
2019-05-14T20:45:25.219Z,0.50
2019-05-14T20:48:11.464Z,0.60
2019-05-14T20:50:58.446Z,0.70
2019-05-14T20:53:44.552Z,0.67
2019-05-14T20:56:30.465Z,1.10
2019-05-14T20:59:16.245Z,0.60
2019-05-14T21:02:02.492Z,0.90
2019-05-14T21:04:54.748Z,0.80
2019-05-14T21:07:38.512Z,0.80
2019-05-14T21:10:24.648Z,0.77
2019-05-14T21:13:10.536Z,0.80
2019-05-14T21:15:56.842Z,1.00
2019-05-14T21:18:42.763Z,0.97
2019-05-14T21:21:29.321Z,0.70
2019-05-14T21:24:15.524Z,0.90
2019-05-14T21:27:01.816Z,0.60
2019-05-14T21:29:48.922Z,0.70
2019-05-14T21:32:35.593Z,0.90
2019-05-14T21:35:21.779Z,0.80
2019-05-14T21:38:09.091Z,0.80
2019-05-14T21:40:55.499Z,0.83
2019-05-14T21:43:41.772Z,0.60
2019-05-14T21:46:28.782Z,0.60
2019-05-14T21:49:15.652Z,0.80
2019-05-14T21:52:02.099Z,0.70
2019-05-14T21:54:48.116Z,0.80
2019-05-14T21:57:34.685Z,1.00
2019-05-14T22:00:29.286Z,0.73
2019-05-14T22:03:13.995Z,0.70
2019-05-14T22:06:00.049Z,0.80
2019-05-14T22:08:45.800Z,0.80
2019-05-14T22:11:32.099Z,0.70
2019-05-14T22:14:18.803Z,0.70
2019-05-14T22:17:04.895Z,0.60
2019-05-14T22:19:50.809Z,0.87
2019-05-14T22:22:39.056Z,0.83
2019-05-14T22:25:24.815Z,0.70
2019-05-14T22:28:15.350Z,0.80
2019-05-14T22:30:58.771Z,0.80
2019-05-14T22:33:44.642Z,0.80
2019-05-14T22:36:30.600Z,0.73
2019-05-14T22:39:19.817Z,1.00
2019-05-14T22:42:04.705Z,0.77
2019-05-14T22:44:50.570Z,0.77
2019-05-14T22:47:39.930Z,0.80
2019-05-14T22:50:24.104Z,0.80
2019-05-14T22:53:10.442Z,0.70
2019-05-14T22:55:58.626Z,0.70
2019-05-14T22:58:44.570Z,0.80
2019-05-14T23:01:30.946Z,0.80
2019-05-14T23:04:18.190Z,0.60
2019-05-14T23:07:04.467Z,0.87
2019-05-14T23:09:50.458Z,0.83
2019-05-14T23:12:38.411Z,0.80
2019-05-14T23:15:24.096Z,0.70
2019-05-14T23:18:10.099Z,0.80
2019-05-14T23:20:58.690Z,0.70
2019-05-14T23:23:44.211Z,0.80
2019-05-14T23:26:30.615Z,0.80
2019-05-14T23:29:16.874Z,0.90
2019-05-14T23:32:03.081Z,1.00
2019-05-14T23:34:49.483Z,0.80
2019-05-14T23:37:35.673Z,0.77
2019-05-14T23:40:22.057Z,0.90
2019-05-14T23:43:08.459Z,0.70
2019-05-14T23:45:54.755Z,1.00
2019-05-14T23:48:41.112Z,1.20
2019-05-14T23:51:29.003Z,1.00
2019-05-14T23:54:15.316Z,0.83
2019-05-14T23:57:01.711Z,1.10
2019-05-14T23:59:48.343Z,1.00
